Time;durP1;ratioP1;P1;durP2;ratioP2;P2;SDS_P1;SDS_P2;PMS_P1;PMS_P2;Temp;Humidity;BMP_temperature;BMP_pressure;BME280_temperature;BME280_humidity;BME280_pressure;Samples;Min_cycle;Max_cycle;Signal;HPM_P1;HPM_P2
2021/01/30 00:01:46;;;;;;;;;;;;;;;22.69;21.75;96507.31;4962486;29;655;-75
2021/01/30 00:04:12;;;;;;;;;;;;;;;22.97;21.39;96502.19;4962100;29;970;-74
2021/01/30 00:06:38;;;;;;;;;;;;;;;21.91;22.46;96492.41;4962030;29;883;-74
2021/01/30 00:09:04;;;;;;;;;;;;;;;21.10;23.90;96490.38;4962124;29;1915;-75
2021/01/30 00:11:29;;;;;;;;;;;;;;;21.54;23.37;96487.00;4945979;29;546;-74
2021/01/30 00:13:55;;;;;;;;;;;;;;;22.23;22.53;96485.91;4962324;29;668;-74
2021/01/30 00:16:20;;;;;;;;;;;;;;;22.74;21.76;96481.94;4962130;29;671;-75
2021/01/30 00:18:46;;;;;;;;;;;;;;;22.16;22.51;96479.81;4961744;29;935;-74
2021/01/30 00:21:11;;;;;;;;;;;;;;;21.36;23.57;96475.81;4962290;29;921;-74
2021/01/30 00:23:36;;;;;;;;;;;;;;;21.59;23.39;96477.84;4961975;29;891;-74
2021/01/30 00:26:02;;;;;;;;;;;;;;;21.87;23.21;96475.63;4962015;29;609;-74
2021/01/30 00:28:27;;;;;;;;;;;;;;;21.88;23.15;96470.75;4962126;29;679;-74
2021/01/30 00:30:53;;;;;;;;;;;;;;;21.82;23.14;96462.91;4961985;29;1895;-74
2021/01/30 00:33:18;;;;;;;;;;;;;;;21.97;23.01;96456.50;4961547;29;981;-75
2021/01/30 00:35:44;;;;;;;;;;;;;;;21.74;22.84;96461.72;4961778;29;932;-74
2021/01/30 00:38:09;;;;;;;;;;;;;;;21.37;23.52;96455.50;4961812;29;874;-74
2021/01/30 00:40:35;;;;;;;;;;;;;;;21.53;23.38;96446.59;4961793;29;656;-74
2021/01/30 00:43:00;;;;;;;;;;;;;;;21.58;23.35;96442.31;4961983;29;604;-74
2021/01/30 00:45:26;;;;;;;;;;;;;;;21.82;23.01;96436.66;4961423;29;1100;-74
2021/01/30 00:47:52;;;;;;;;;;;;;;;21.98;22.96;96436.19;4961692;29;874;-74
2021/01/30 00:50:20;;;;;;;;;;;;;;;22.02;22.94;96430.31;4929476;29;1910;-74
2021/01/30 00:52:45;;;;;;;;;;;;;;;22.18;22.42;96429.13;4945106;29;1318;-74
2021/01/30 00:55:20;;;;;;;;;;;;;;;21.55;23.35;96429.13;4961776;29;678;-74
2021/01/30 00:57:46;;;;;;;;;;;;;;;21.28;23.91;96425.19;4945212;29;1384;-74
2021/01/30 01:00:15;;;;;;;;;;;;;;;21.54;23.41;96421.91;4944974;29;1150;-74
2021/01/30 01:02:40;;;;;;;;;;;;;;;22.16;22.67;96417.50;4961485;29;964;-75
2021/01/30 01:05:07;;;;;;;;;;;;;;;22.96;21.69;96398.50;4944807;29;1158;-75
2021/01/30 01:07:44;;;;;;;;;;;;;;;23.15;21.30;96399.81;4961766;29;611;-75
2021/01/30 01:10:10;;;;;;;;;;;;;;;22.81;21.82;96399.28;4963893;28;1970;-75
2021/01/30 01:12:36;;;;;;;;;;;;;;;21.57;23.24;96389.81;4948779;29;885;-74
2021/01/30 01:15:02;;;;;;;;;;;;;;;21.56;23.49;96389.03;4965208;29;919;-74
2021/01/30 01:17:27;;;;;;;;;;;;;;;22.00;23.00;96381.91;4965329;29;852;-74
2021/01/30 01:19:53;;;;;;;;;;;;;;;21.93;23.11;96373.78;4965526;29;648;-74
2021/01/30 01:22:18;;;;;;;;;;;;;;;22.02;22.93;96373.69;4965312;29;678;-74
2021/01/30 01:24:44;;;;;;;;;;;;;;;22.10;22.45;96363.53;4965301;29;699;-74
2021/01/30 01:27:09;;;;;;;;;;;;;;;21.69;23.29;96363.28;4965144;29;1008;-74
2021/01/30 01:29:35;;;;;;;;;;;;;;;21.27;23.92;96360.63;4964812;29;1966;-74
2021/01/30 01:32:00;;;;;;;;;;;;;;;21.08;24.10;96351.47;4965057;29;847;-74
2021/01/30 01:34:26;;;;;;;;;;;;;;;21.91;23.08;96339.50;4965158;29;604;-74
2021/01/30 01:36:52;;;;;;;;;;;;;;;21.92;23.17;96336.19;4948850;29;639;-74
2021/01/30 01:39:18;;;;;;;;;;;;;;;21.89;23.05;96331.50;4964914;29;619;-74
2021/01/30 01:41:43;;;;;;;;;;;;;;;21.91;23.00;96325.34;4964639;29;1069;-74
2021/01/30 01:44:09;;;;;;;;;;;;;;;21.98;23.00;96322.91;4965009;29;882;-74
2021/01/30 01:46:36;;;;;;;;;;;;;;;21.55;23.53;96325.22;4964824;29;840;-74
2021/01/30 01:49:16;;;;;;;;;;;;;;;21.26;23.59;96314.59;4948199;29;1966;-74
2021/01/30 01:51:42;;;;;;;;;;;;;;;21.43;23.79;96311.34;4948226;29;695;-74
2021/01/30 01:54:26;;;;;;;;;;;;;;;21.83;23.06;96299.47;4948120;29;1084;-73
2021/01/30 01:56:52;;;;;;;;;;;;;;;21.84;23.26;96301.81;4948062;29;675;-74
2021/01/30 01:59:18;;;;;;;;;;;;;;;21.92;23.02;96290.13;4964432;29;947;-74
2021/01/30 02:01:43;;;;;;;;;;;;;;;21.74;23.11;96291.84;4947705;29;812;-75
2021/01/30 02:04:10;;;;;;;;;;;;;;;21.18;23.98;96296.41;4947852;29;1047;-74
2021/01/30 02:06:36;;;;;;;;;;;;;;;21.13;23.91;96288.59;4964796;29;628;-74
2021/01/30 02:09:02;;;;;;;;;;;;;;;21.69;23.38;96281.22;4964425;29;1895;-74
2021/01/30 02:11:27;;;;;;;;;;;;;;;21.79;23.14;96277.00;4964396;29;636;-75
2021/01/30 02:13:54;;;;;;;;;;;;;;;21.93;23.07;96280.34;4964057;29;1031;-74
2021/01/30 02:16:19;;;;;;;;;;;;;;;22.01;23.08;96270.94;4947535;29;892;-75
2021/01/30 02:18:51;;;;;;;;;;;;;;;21.82;23.26;96264.72;4964134;29;864;-74
2021/01/30 02:21:35;;;;;;;;;;;;;;;21.43;23.72;96266.06;4963553;28;663;-74
2021/01/30 02:24:19;;;;;;;;;;;;;;;21.21;24.12;96261.50;4947284;29;1102;-73
2021/01/30 02:26:48;;;;;;;;;;;;;;;21.79;23.29;96260.03;4964212;29;727;-73
2021/01/30 02:29:13;;;;;;;;;;;;;;;21.73;23.15;96249.88;4963486;29;1964;-74
2021/01/30 02:31:57;;;;;;;;;;;;;;;21.75;23.36;96259.44;4963780;29;897;-75
2021/01/30 02:34:26;;;;;;;;;;;;;;;21.58;23.37;96261.19;4964035;29;644;-74
2021/01/30 02:37:01;;;;;;;;;;;;;;;22.17;22.63;96255.53;4964010;29;739;-74
2021/01/30 02:39:28;;;;;;;;;;;;;;;21.63;23.38;96254.06;4963984;29;670;-74
2021/01/30 02:42:00;;;;;;;;;;;;;;;21.21;23.90;96253.03;4947440;29;668;-74
2021/01/30 02:44:25;;;;;;;;;;;;;;;21.71;23.52;96247.56;4963602;29;1013;-74
2021/01/30 02:46:52;;;;;;;;;;;;;;;21.88;23.22;96238.56;4946950;29;824;-74
2021/01/30 02:49:20;;;;;;;;;;;;;;;21.88;23.18;96224.41;4947057;29;1980;-74
2021/01/30 02:51:46;;;;;;;;;;;;;;;21.84;22.99;96233.88;4947119;29;636;-74
2021/01/30 02:54:11;;;;;;;;;;;;;;;21.78;23.03;96233.00;4947334;29;1114;-74
2021/01/30 02:56:37;;;;;;;;;;;;;;;21.53;23.37;96225.09;4963649;29;692;-74
2021/01/30 02:59:10;;;;;;;;;;;;;;;21.34;23.58;96232.97;4963667;29;714;-74
2021/01/30 03:01:36;;;;;;;;;;;;;;;21.55;23.68;96223.34;4946808;29;943;-74
2021/01/30 03:04:02;;;;;;;;;;;;;;;21.76;23.31;96229.88;4946672;29;840;-74
2021/01/30 03:06:27;;;;;;;;;;;;;;;23.03;21.61;96222.22;4963474;29;1013;-75
2021/01/30 03:09:11;;;;;;;;;;;;;;;22.67;21.69;96229.97;4963399;29;587;-74
2021/01/30 03:11:38;;;;;;;;;;;;;;;21.46;23.29;96225.47;4963391;29;647;-74
2021/01/30 03:14:05;;;;;;;;;;;;;;;21.47;23.49;96216.50;4946655;29;885;-74
2021/01/30 03:16:33;;;;;;;;;;;;;;;22.03;22.82;96222.34;4946416;29;881;-74
2021/01/30 03:19:22;;;;;;;;;;;;;;;22.02;22.99;96221.56;4962948;29;883;-75
2021/01/30 03:21:47;;;;;;;;;;;;;;;22.00;22.93;96220.47;4953091;29;1468;-75
2021/01/30 03:24:13;;;;;;;;;;;;;;;21.92;23.29;96216.50;4963328;29;722;-75
2021/01/30 03:26:40;;;;;;;;;;;;;;;21.73;23.26;96216.69;4946511;29;707;-75
2021/01/30 03:29:05;;;;;;;;;;;;;;;21.51;23.66;96216.31;4946255;29;1887;-75
2021/01/30 03:31:31;;;;;;;;;;;;;;;21.63;23.31;96211.63;4963147;29;663;-75
2021/01/30 03:33:56;;;;;;;;;;;;;;;21.81;23.15;96206.56;4962050;28;935;-74
2021/01/30 03:36:22;;;;;;;;;;;;;;;21.89;23.31;96217.47;4962547;29;926;-74
2021/01/30 03:38:47;;;;;;;;;;;;;;;21.96;22.85;96217.06;4963200;29;971;-75
2021/01/30 03:41:12;;;;;;;;;;;;;;;21.69;23.47;96210.44;4962859;29;678;-75
2021/01/30 03:43:38;;;;;;;;;;;;;;;21.41;24.00;96200.69;4962734;29;584;-74
2021/01/30 03:46:03;;;;;;;;;;;;;;;21.18;24.25;96205.13;4963000;29;651;-74
2021/01/30 03:48:29;;;;;;;;;;;;;;;21.61;23.48;96197.97;4945740;29;975;-74
2021/01/30 03:50:54;;;;;;;;;;;;;;;21.87;23.31;96197.38;4962269;29;1914;-74
2021/01/30 03:53:20;;;;;;;;;;;;;;;21.74;23.36;96192.78;4945926;29;1131;-75
2021/01/30 03:55:45;;;;;;;;;;;;;;;22.14;22.69;96191.38;4962891;29;691;-74
2021/01/30 03:58:11;;;;;;;;;;;;;;;21.97;22.91;96190.31;4962494;29;649;-74
2021/01/30 04:00:36;;;;;;;;;;;;;;;21.39;23.60;96189.84;4962660;29;663;-75
2021/01/30 04:03:02;;;;;;;;;;;;;;;21.31;23.94;96186.63;4962705;29;623;-74
2021/01/30 04:05:27;;;;;;;;;;;;;;;21.61;23.59;96195.13;4962076;29;1057;-74
2021/01/30 04:07:56;;;;;;;;;;;;;;;22.21;22.88;96182.47;4962198;29;863;-76
2021/01/30 04:10:27;;;;;;;;;;;;;;;21.74;23.19;96187.13;4944981;29;1988;-75
2021/01/30 04:12:52;;;;;;;;;;;;;;;21.90;23.26;96180.16;4962248;29;581;-74
2021/01/30 04:15:21;;;;;;;;;;;;;;;21.43;23.81;96186.84;4962246;29;695;-74
2021/01/30 04:17:47;;;;;;;;;;;;;;;21.87;23.21;96180.38;4962214;29;636;-74
2021/01/30 04:20:12;;;;;;;;;;;;;;;22.65;22.49;96175.84;4961886;29;985;-74
2021/01/30 04:22:50;;;;;;;;;;;;;;;22.92;21.78;96176.72;4961771;29;925;-75
2021/01/30 04:25:16;;;;;;;;;;;;;;;21.84;23.05;96170.81;4961997;29;644;-73
2021/01/30 04:27:41;;;;;;;;;;;;;;;21.52;23.71;96179.03;4962029;29;647;-74
2021/01/30 04:30:07;;;;;;;;;;;;;;;21.65;23.71;96186.44;4962236;29;1907;-74
2021/01/30 04:32:33;;;;;;;;;;;;;;;22.05;22.91;96169.56;4961959;29;680;-74
2021/01/30 04:34:58;;;;;;;;;;;;;;;22.84;21.80;96162.13;4961560;29;873;-74
2021/01/30 04:37:23;;;;;;;;;;;;;;;22.25;22.54;96171.69;4961761;29;857;-74
2021/01/30 04:39:49;;;;;;;;;;;;;;;21.46;23.79;96154.75;4961781;29;753;-74
2021/01/30 04:42:24;;;;;;;;;;;;;;;21.67;23.64;96164.88;4961739;29;640;-73
2021/01/30 04:45:01;;;;;;;;;;;;;;;21.88;23.52;96153.63;4944935;29;692;-74
2021/01/30 04:47:26;;;;;;;;;;;;;;;21.80;23.62;96148.34;4945166;29;689;-74
2021/01/30 04:50:05;;;;;;;;;;;;;;;21.87;23.39;96146.41;4961449;29;1899;-75
2021/01/30 04:52:33;;;;;;;;;;;;;;;21.71;23.35;96142.81;4944877;29;943;-74
2021/01/30 04:54:59;;;;;;;;;;;;;;;21.43;23.74;96147.22;4961096;29;1021;-75
2021/01/30 04:57:44;;;;;;;;;;;;;;;21.34;24.17;96145.25;4961723;29;645;-73
2021/01/30 05:00:42;;;;;;;;;;;;;;;21.91;23.21;96139.25;4944815;29;1189;-74
2021/01/30 05:03:15;;;;;;;;;;;;;;;21.97;23.23;96133.69;4919513;29;1158;-74
2021/01/30 05:05:42;;;;;;;;;;;;;;;22.19;23.03;96139.69;4944743;29;877;-75
2021/01/30 05:08:19;;;;;;;;;;;;;;;21.95;22.95;96137.00;4944588;29;853;-74
2021/01/30 05:10:45;;;;;;;;;;;;;;;21.37;24.06;96127.31;4944909;29;1975;-74
2021/01/30 05:13:16;;;;;;;;;;;;;;;21.48;24.14;96132.38;4961481;29;588;-74
2021/01/30 05:15:41;;;;;;;;;;;;;;;21.85;23.58;96127.84;4944983;29;647;-75
2021/01/30 05:18:17;;;;;;;;;;;;;;;21.89;23.52;96126.84;4961364;29;604;-74
2021/01/30 05:21:06;;;;;;;;;;;;;;;22.07;23.31;96126.59;4944683;29;922;-74
2021/01/30 05:23:31;;;;;;;;;;;;;;;22.03;23.35;96121.16;4950979;29;1404;-75
2021/01/30 05:25:59;;;;;;;;;;;;;;;21.76;23.23;96118.66;4944776;29;593;-75
2021/01/30 05:28:26;;;;;;;;;;;;;;;21.19;24.43;96116.97;4944742;29;652;-74
2021/01/30 05:30:54;;;;;;;;;;;;;;;21.61;23.92;96107.41;4944648;29;1970;-74
2021/01/30 05:33:23;;;;;;;;;;;;;;;21.64;23.77;96112.06;4944572;29;852;-74
2021/01/30 05:35:50;;;;;;;;;;;;;;;21.77;23.70;96098.38;4960916;29;871;-74
2021/01/30 05:38:38;;;;;;;;;;;;;;;21.85;23.66;96102.34;4961240;29;920;-75
2021/01/30 05:41:06;;;;;;;;;;;;;;;21.88;23.72;96097.00;4925725;29;1025;-74
2021/01/30 05:43:38;;;;;;;;;;;;;;;21.65;23.57;96095.88;4944872;29;731;-75
2021/01/30 05:46:04;;;;;;;;;;;;;;;20.99;24.33;96091.44;4944481;29;1267;-74
2021/01/30 05:48:36;;;;;;;;;;;;;;;21.34;24.21;96097.19;4944543;29;976;-74
2021/01/30 05:51:20;;;;;;;;;;;;;;;22.01;23.42;96083.25;4944173;29;1903;-74
2021/01/30 05:53:46;;;;;;;;;;;;;;;22.82;22.30;96088.91;4960960;29;1061;-74
2021/01/30 05:56:11;;;;;;;;;;;;;;;22.02;22.95;96085.63;4945218;29;600;-74
2021/01/30 05:58:40;;;;;;;;;;;;;;;21.39;23.93;96073.06;4964718;29;660;-74
2021/01/30 06:01:15;;;;;;;;;;;;;;;21.60;23.72;96088.84;4948205;29;700;-74
2021/01/30 06:04:00;;;;;;;;;;;;;;;22.03;23.29;96080.72;4947539;29;1334;-75
2021/01/30 06:06:30;;;;;;;;;;;;;;;21.91;23.76;96074.13;4964352;29;904;-74
2021/01/30 06:08:57;;;;;;;;;;;;;;;22.03;23.27;96069.41;4947939;29;675;-73
2021/01/30 06:11:22;;;;;;;;;;;;;;;21.58;23.94;96074.41;4947216;29;1988;-75
2021/01/30 06:13:52;;;;;;;;;;;;;;;21.30;24.25;96071.16;4947711;29;1283;-74
2021/01/30 06:16:33;;;;;;;;;;;;;;;21.76;23.55;96070.56;4947850;29;668;-73
2021/01/30 06:19:01;;;;;;;;;;;;;;;21.69;23.81;96063.25;4964035;29;881;-73
2021/01/30 06:21:27;;;;;;;;;;;;;;;21.84;23.68;96064.00;4947576;29;1472;-74
2021/01/30 06:24:12;;;;;;;;;;;;;;;22.01;23.57;96064.22;4947581;29;987;-74
2021/01/30 06:26:45;;;;;;;;;;;;;;;22.09;23.39;96062.53;4963698;29;917;-74
2021/01/30 06:29:37;;;;;;;;;;;;;;;21.69;23.77;96063.25;4964158;28;1902;-74
2021/01/30 06:32:06;;;;;;;;;;;;;;;21.22;24.37;96053.75;4960228;29;1040;-74
2021/01/30 06:34:33;;;;;;;;;;;;;;;21.55;23.98;96055.56;4947092;29;911;-74
2021/01/30 06:36:59;;;;;;;;;;;;;;;21.93;23.60;96053.81;4963802;29;828;-74
2021/01/30 06:39:29;;;;;;;;;;;;;;;21.94;23.71;96056.16;4947272;29;884;-74
2021/01/30 06:41:55;;;;;;;;;;;;;;;22.13;23.20;96050.25;4963907;29;792;-74
2021/01/30 06:44:26;;;;;;;;;;;;;;;21.72;23.58;96045.28;4964239;29;667;-74
2021/01/30 06:47:10;;;;;;;;;;;;;;;21.33;24.40;96042.66;4947709;29;671;-74
2021/01/30 06:49:42;;;;;;;;;;;;;;;21.18;24.50;96041.84;4963516;29;1902;-74
2021/01/30 06:52:08;;;;;;;;;;;;;;;22.10;23.30;96037.81;4963498;29;812;-74
2021/01/30 06:54:34;;;;;;;;;;;;;;;22.75;22.58;96043.22;4963639;29;1143;-74
2021/01/30 06:57:29;;;;;;;;;;;;;;;22.64;22.30;96032.56;4963646;29;600;-74
2021/01/30 06:59:59;;;;;;;;;;;;;;;21.51;23.95;96018.25;4947203;29;1063;-74
2021/01/30 07:02:29;;;;;;;;;;;;;;;21.67;23.97;96025.41;4946408;29;819;-73
2021/01/30 07:04:58;;;;;;;;;;;;;;;21.82;23.93;96021.25;4946197;29;897;-74
2021/01/30 07:07:27;;;;;;;;;;;;;;;21.87;23.78;96019.78;4963005;28;906;-74
2021/01/30 07:10:08;;;;;;;;;;;;;;;22.03;23.59;96029.75;4946106;29;1903;-73
2021/01/30 07:12:52;;;;;;;;;;;;;;;22.01;23.64;96027.41;4963299;29;703;-75
2021/01/30 07:15:24;;;;;;;;;;;;;;;21.41;24.36;96028.13;4963426;29;631;-74
2021/01/30 07:17:53;;;;;;;;;;;;;;;20.88;25.00;96029.00;4946718;29;640;-74
2021/01/30 07:20:21;;;;;;;;;;;;;;;21.54;24.41;96028.56;4962868;29;800;-74
2021/01/30 07:22:56;;;;;;;;;;;;;;;21.88;23.93;96024.16;4962785;29;967;-74
2021/01/30 07:25:23;;;;;;;;;;;;;;;22.15;23.60;96025.81;4962983;29;927;-74
2021/01/30 07:28:11;;;;;;;;;;;;;;;22.00;23.53;96025.06;4946588;29;696;-74
2021/01/30 07:30:40;;;;;;;;;;;;;;;22.05;23.71;96013.03;4952530;29;1984;-74
2021/01/30 07:33:08;;;;;;;;;;;;;;;21.45;24.37;96009.66;4946366;29;625;-75
2021/01/30 07:35:48;;;;;;;;;;;;;;;21.25;24.77;96001.88;4946564;29;656;-74
2021/01/30 07:38:18;;;;;;;;;;;;;;;21.63;24.14;96002.97;4962711;29;942;-74
2021/01/30 07:40:48;;;;;;;;;;;;;;;21.90;23.98;95998.16;4946104;29;948;-74
2021/01/30 07:43:15;;;;;;;;;;;;;;;21.89;24.10;96003.06;4946143;29;667;-75
2021/01/30 07:46:00;;;;;;;;;;;;;;;22.04;23.96;96000.16;4946271;29;612;-75
2021/01/30 07:48:31;;;;;;;;;;;;;;;21.63;23.87;96005.78;4962667;29;1022;-74
2021/01/30 07:51:07;;;;;;;;;;;;;;;21.44;24.34;96012.97;4945978;29;1973;-74
2021/01/30 07:53:32;;;;;;;;;;;;;;;21.59;24.47;96019.38;4945567;29;1124;-74
2021/01/30 07:56:16;;;;;;;;;;;;;;;21.79;23.95;96010.91;4945643;29;847;-74
2021/01/30 07:59:00;;;;;;;;;;;;;;;21.77;24.10;96012.69;4962981;29;707;-75
2021/01/30 08:01:31;;;;;;;;;;;;;;;21.76;24.27;96022.44;4962539;29;710;-74
2021/01/30 08:04:32;;;;;;;;;;;;;;;22.01;23.64;96015.28;4962368;29;651;-74
2021/01/30 08:07:33;;;;;;;;;;;;;;;21.70;24.03;96013.84;4885217;29;1115;-74
2021/01/30 08:10:05;;;;;;;;;;;;;;;21.27;24.65;96021.97;4884873;29;1903;-75
2021/01/30 08:12:49;;;;;;;;;;;;;;;21.41;24.83;96013.97;4949100;29;884;-74
2021/01/30 08:15:35;;;;;;;;;;;;;;;21.72;24.46;96017.00;4962182;29;624;-74
2021/01/30 08:18:13;;;;;;;;;;;;;;;21.78;24.13;96015.00;4962096;29;1030;-74
2021/01/30 08:20:43;;;;;;;;;;;;;;;21.96;23.92;96018.84;4961740;29;643;-74
2021/01/30 08:23:24;;;;;;;;;;;;;;;21.98;23.87;96024.78;4945453;29;902;-74
2021/01/30 08:25:57;;;;;;;;;;;;;;;21.76;24.21;96022.44;4943538;29;1169;-74
2021/01/30 08:28:34;;;;;;;;;;;;;;;21.56;24.36;96028.84;4925998;29;906;-74
2021/01/30 08:31:00;;;;;;;;;;;;;;;21.36;24.85;96034.47;4926349;29;1902;-74
2021/01/30 08:33:25;;;;;;;;;;;;;;;21.88;23.92;96029.03;4944571;29;1197;-74
2021/01/30 08:35:52;;;;;;;;;;;;;;;21.83;24.23;96019.97;4943234;29;1441;-74
2021/01/30 08:38:17;;;;;;;;;;;;;;;22.04;24.10;96019.97;4942766;29;623;-75
2021/01/30 08:40:43;;;;;;;;;;;;;;;22.08;23.86;96026.22;4942789;29;643;-75
2021/01/30 08:43:08;;;;;;;;;;;;;;;21.75;24.34;96015.22;4942442;29;1197;-73
2021/01/30 08:45:34;;;;;;;;;;;;;;;21.25;24.74;96015.25;4942374;29;1106;-74
2021/01/30 08:48:02;;;;;;;;;;;;;;;21.37;24.80;96008.50;4925730;29;990;-75
2021/01/30 08:50:31;;;;;;;;;;;;;;;21.73;24.41;96009.28;4942190;29;1984;-73
2021/01/30 08:53:16;;;;;;;;;;;;;;;21.90;23.97;96010.28;4942532;29;1009;-73
2021/01/30 08:55:43;;;;;;;;;;;;;;;22.21;23.71;96012.47;4935474;29;1077;-73
2021/01/30 08:58:08;;;;;;;;;;;;;;;22.10;23.85;96006.66;4955705;29;1142;-73
2021/01/30 09:00:47;;;;;;;;;;;;;;;22.06;24.05;96011.75;4944661;29;883;-73
2021/01/30 09:03:33;;;;;;;;;;;;;;;21.56;24.23;96014.72;4944379;29;884;-73
2021/01/30 09:05:58;;;;;;;;;;;;;;;21.31;24.69;96011.25;4961393;29;1338;-73
2021/01/30 09:08:24;;;;;;;;;;;;;;;21.53;24.90;96004.38;4945000;29;706;-73
2021/01/30 09:10:49;;;;;;;;;;;;;;;21.75;24.19;95987.69;4961407;29;1902;-74
2021/01/30 09:13:15;;;;;;;;;;;;;;;21.93;24.09;95991.53;4944797;29;1270;-73
2021/01/30 09:15:41;;;;;;;;;;;;;;;21.88;24.08;95989.41;4961301;29;924;-73
2021/01/30 09:18:09;;;;;;;;;;;;;;;21.80;24.31;96001.13;4961123;29;873;-73
2021/01/30 09:20:47;;;;;;;;;;;;;;;21.54;24.45;95989.72;4961387;29;892;-73
2021/01/30 09:23:19;;;;;;;;;;;;;;;21.45;24.82;95987.03;4944791;29;699;-74
2021/01/30 09:26:20;;;;;;;;;;;;;;;21.48;24.53;95997.34;4961344;29;663;-73
2021/01/30 09:28:45;;;;;;;;;;;;;;;21.75;24.15;95989.72;4884186;29;1188;-73
2021/01/30 09:31:17;;;;;;;;;;;;;;;21.91;24.21;95988.41;4945770;28;1899;-73
2021/01/30 09:33:47;;;;;;;;;;;;;;;22.05;24.08;95981.88;4964719;29;886;-73
2021/01/30 09:36:22;;;;;;;;;;;;;;;21.90;24.07;95989.66;4964977;29;945;-73
2021/01/30 09:38:48;;;;;;;;;;;;;;;21.34;24.97;95984.00;4948025;29;898;-73
2021/01/30 09:41:20;;;;;;;;;;;;;;;21.11;25.16;95980.06;4964890;29;652;-73
2021/01/30 09:43:45;;;;;;;;;;;;;;;21.71;24.64;95981.47;4964840;29;889;-73
2021/01/30 09:46:20;;;;;;;;;;;;;;;21.67;24.65;95969.56;4964546;29;867;-73
2021/01/30 09:48:45;;;;;;;;;;;;;;;21.77;24.24;95971.00;4948134;29;956;-73
2021/01/30 09:51:11;;;;;;;;;;;;;;;22.00;24.00;95979.75;4964731;29;1902;-73
2021/01/30 09:53:37;;;;;;;;;;;;;;;21.64;24.39;95976.22;4964562;29;1059;-73
2021/01/30 09:56:02;;;;;;;;;;;;;;;21.41;24.69;95968.69;4964813;29;648;-73
2021/01/30 09:58:28;;;;;;;;;;;;;;;21.65;24.58;95966.44;4964319;29;966;-73
2021/01/30 10:00:53;;;;;;;;;;;;;;;21.88;24.20;95961.09;4964285;29;892;-73
2021/01/30 10:03:20;;;;;;;;;;;;;;;22.03;24.14;95950.47;4964579;29;1119;-73
2021/01/30 10:05:46;;;;;;;;;;;;;;;22.08;24.00;95955.41;4964493;29;803;-73
2021/01/30 10:08:14;;;;;;;;;;;;;;;21.46;24.89;95942.53;4964421;29;746;-74
2021/01/30 10:10:39;;;;;;;;;;;;;;;21.04;25.06;95955.03;4964203;29;1895;-73
2021/01/30 10:13:09;;;;;;;;;;;;;;;22.04;24.04;95963.34;4964117;29;863;-74
2021/01/30 10:15:51;;;;;;;;;;;;;;;22.59;23.16;95957.53;4947649;29;925;-74
2021/01/30 10:18:19;;;;;;;;;;;;;;;22.32;23.50;95966.50;4963246;29;1050;-74
2021/01/30 10:20:56;;;;;;;;;;;;;;;21.71;24.46;95969.34;4930919;29;1193;-74
2021/01/30 10:23:31;;;;;;;;;;;;;;;21.66;24.60;95973.69;4936498;29;1168;-74
2021/01/30 10:26:06;;;;;;;;;;;;;;;21.80;24.23;95975.66;4946025;29;1126;-74
2021/01/30 10:28:50;;;;;;;;;;;;;;;21.85;24.13;95974.94;4962826;29;1152;-73
2021/01/30 10:31:17;;;;;;;;;;;;;;;21.97;24.23;95983.59;4962624;29;1895;-74
2021/01/30 10:33:44;;;;;;;;;;;;;;;21.84;24.46;95981.09;4947356;29;643;-74
2021/01/30 10:36:10;;;;;;;;;;;;;;;21.53;24.79;95978.91;4947666;29;765;-74
2021/01/30 10:38:35;;;;;;;;;;;;;;;20.99;25.22;95973.44;4964027;29;671;-74
2021/01/30 10:41:01;;;;;;;;;;;;;;;21.89;24.44;95986.06;4963535;29;1096;-74
2021/01/30 10:43:30;;;;;;;;;;;;;;;22.08;23.99;95983.72;4963022;28;843;-74
2021/01/30 10:45:56;;;;;;;;;;;;;;;22.03;24.37;95984.44;4963870;29;854;-73
2021/01/30 10:48:23;;;;;;;;;;;;;;;21.90;24.46;95992.50;4947073;29;639;-73
2021/01/30 10:50:48;;;;;;;;;;;;;;;20.09;24.63;95721.84;4963821;29;1899;-72
2021/01/30 10:53:23;;;;;;;;;;;;;;;21.69;24.50;95984.00;4947216;29;1029;-74
2021/01/30 10:55:49;;;;;;;;;;;;;;;21.26;25.19;95983.63;4963827;29;684;-74
2021/01/30 10:58:14;;;;;;;;;;;;;;;21.81;24.42;95982.91;4963594;29;631;-74
2021/01/30 11:00:40;;;;;;;;;;;;;;;21.98;24.20;95977.44;4963186;29;1017;-74
2021/01/30 11:03:18;;;;;;;;;;;;;;;21.99;24.35;95978.97;4963300;29;817;-74
2021/01/30 11:05:43;;;;;;;;;;;;;;;21.74;24.62;95980.47;4963561;29;996;-74
2021/01/30 11:08:09;;;;;;;;;;;;;;;21.87;24.55;95973.69;4946937;29;655;-74
2021/01/30 11:10:37;;;;;;;;;;;;;;;21.71;24.77;95972.97;4946749;29;1967;-74
2021/01/30 11:13:07;;;;;;;;;;;;;;;21.38;25.20;95975.34;4963333;29;620;-74
2021/01/30 11:15:33;;;;;;;;;;;;;;;21.63;24.78;95966.16;4963080;29;986;-74
2021/01/30 11:18:17;;;;;;;;;;;;;;;21.84;24.60;95973.41;4946338;29;905;-73
2021/01/30 11:20:43;;;;;;;;;;;;;;;21.93;24.23;95968.88;4963351;29;554;-74
2021/01/30 11:23:09;;;;;;;;;;;;;;;21.79;24.43;95974.09;4963140;29;644;-74
2021/01/30 11:25:37;;;;;;;;;;;;;;;21.89;24.40;95971.13;4963136;29;635;-74
2021/01/30 11:28:03;;;;;;;;;;;;;;;22.10;24.25;95961.34;4963068;29;711;-74
2021/01/30 11:30:31;;;;;;;;;;;;;;;21.54;24.91;95977.63;4946110;29;1902;-74
2021/01/30 11:33:04;;;;;;;;;;;;;;;20.97;25.74;95978.03;4962645;29;877;-74
2021/01/30 11:35:34;;;;;;;;;;;;;;;21.56;24.95;95980.75;4962845;29;895;-74
2021/01/30 11:38:06;;;;;;;;;;;;;;;21.62;24.92;95981.59;4946337;29;631;-73
2021/01/30 11:40:32;;;;;;;;;;;;;;;21.83;24.65;95980.34;4963122;29;640;-74
2021/01/30 11:42:57;;;;;;;;;;;;;;;21.95;24.50;95988.97;4962837;29;643;-74
2021/01/30 11:45:23;;;;;;;;;;;;;;;21.93;24.83;95986.63;4962355;29;911;-74
2021/01/30 11:47:51;;;;;;;;;;;;;;;21.81;24.53;95977.22;4962369;29;876;-73
2021/01/30 11:50:17;;;;;;;;;;;;;;;21.37;25.08;95982.28;4962603;29;1903;-74
2021/01/30 11:52:42;;;;;;;;;;;;;;;21.14;25.86;95976.25;4962502;28;1120;-74
2021/01/30 11:55:08;;;;;;;;;;;;;;;21.83;24.54;95985.22;4961710;28;597;-74
2021/01/30 11:57:33;;;;;;;;;;;;;;;22.86;23.48;95981.72;4962532;29;628;-74
2021/01/30 11:59:59;;;;;;;;;;;;;;;22.20;24.17;95970.50;4962242;29;923;-74
2021/01/30 12:02:29;;;;;;;;;;;;;;;21.67;25.11;95957.47;4962118;29;852;-74
2021/01/30 12:04:54;;;;;;;;;;;;;;;22.01;24.33;95964.31;4945732;29;1019;-74
2021/01/30 12:07:20;;;;;;;;;;;;;;;22.08;24.35;95970.34;4962672;29;730;-74
2021/01/30 12:09:45;;;;;;;;;;;;;;;21.92;24.66;95965.25;4962185;29;1902;-74
2021/01/30 12:12:10;;;;;;;;;;;;;;;21.83;24.56;95971.06;4961923;29;1118;-74
2021/01/30 12:14:36;;;;;;;;;;;;;;;22.22;24.18;95973.59;4962021;29;1042;-74
2021/01/30 12:17:01;;;;;;;;;;;;;;;22.15;24.37;95982.53;4962137;29;953;-74
2021/01/30 12:19:27;;;;;;;;;;;;;;;22.17;24.21;95989.25;4962084;29;655;-74
2021/01/30 12:21:53;;;;;;;;;;;;;;;22.15;24.25;95986.16;4962269;29;608;-74
2021/01/30 12:24:18;;;;;;;;;;;;;;;22.09;24.17;95988.13;4962024;29;687;-74
2021/01/30 12:26:43;;;;;;;;;;;;;;;21.56;24.88;95992.84;4962073;29;734;-73
2021/01/30 12:29:09;;;;;;;;;;;;;;;21.81;24.45;95991.38;4945097;29;1215;-73
2021/01/30 12:31:34;;;;;;;;;;;;;;;22.02;24.29;95994.19;4961669;29;1910;-73
2021/01/30 12:34:00;;;;;;;;;;;;;;;22.17;24.12;95989.25;4961854;29;1161;-74
2021/01/30 12:36:25;;;;;;;;;;;;;;;22.12;24.21;95989.97;4961667;29;683;-74
2021/01/30 12:38:51;;;;;;;;;;;;;;;21.92;24.20;95985.09;4961783;29;1062;-73
2021/01/30 12:41:16;;;;;;;;;;;;;;;21.71;24.98;95975.81;4962599;29;640;-83
2021/01/30 12:43:42;;;;;;;;;;;;;;;21.25;25.89;95973.59;4946081;29;816;-82
2021/01/30 12:46:07;;;;;;;;;;;;;;;22.08;24.25;95980.91;4962082;29;919;-76
2021/01/30 12:48:33;;;;;;;;;;;;;;;22.83;23.22;95976.28;4961712;29;997;-76
2021/01/30 12:50:58;;;;;;;;;;;;;;;22.70;23.28;95967.41;4961839;29;1930;-75
2021/01/30 12:53:24;;;;;;;;;;;;;;;22.05;24.12;95976.22;4961702;29;1145;-74
2021/01/30 12:55:50;;;;;;;;;;;;;;;21.37;25.04;95968.13;4961666;29;648;-74
2021/01/30 12:58:16;;;;;;;;;;;;;;;21.45;24.80;95983.41;4961330;29;1063;-74
2021/01/30 13:00:42;;;;;;;;;;;;;;;22.07;23.83;95979.31;4961511;29;891;-73
2021/01/30 13:03:07;;;;;;;;;;;;;;;21.62;24.56;95984.44;4961523;29;879;-73
2021/01/30 13:05:33;;;;;;;;;;;;;;;21.96;24.13;95990.50;4962979;28;664;-73
2021/01/30 13:07:58;;;;;;;;;;;;;;;22.35;23.77;95988.97;4966024;29;667;-74
2021/01/30 13:10:24;;;;;;;;;;;;;;;21.68;24.56;95996.59;4965512;29;1948;-74
2021/01/30 13:12:58;;;;;;;;;;;;;;;21.78;24.54;95992.38;4965208;29;930;-74
2021/01/30 13:15:24;;;;;;;;;;;;;;;21.70;24.53;95998.94;4965147;29;831;-74
2021/01/30 13:17:49;;;;;;;;;;;;;;;21.70;24.30;96002.53;4965402;29;1021;-74